Time;durP1;ratioP1;P1;durP2;ratioP2;P2;SDS_P1;SDS_P2;PMS_P1;PMS_P2;Temp;Humidity;BMP_temperature;BMP_pressure;BME280_temperature;BME280_humidity;BME280_pressure;Samples;Min_cycle;Max_cycle;Signal;HPM_P1;HPM_P2
2023/01/10 00:02:16;;;;;;;2.20;0.75;;;17.10;75.20;;;;;;7401934;19;19974;-70
2023/01/10 00:04:46;;;;;;;1.67;0.60;;;17.10;75.20;;;;;;7401772;19;20352;-69
2023/01/10 00:07:17;;;;;;;1.13;0.80;;;17.10;75.20;;;;;;7401997;19;20001;-70
2023/01/10 00:09:46;;;;;;;1.52;0.60;;;17.10;75.70;;;;;;7400303;19;20358;-70
2023/01/10 00:14:57;;;;;;;0.70;0.20;;;17.00;75.10;;;;;;7401659;19;19982;-70
2023/01/10 00:17:26;;;;;;;2.05;0.40;;;17.10;75.10;;;;;;7401955;19;20312;-70
2023/01/10 00:19:54;;;;;;;1.40;0.60;;;17.10;75.10;;;;;;7408467;19;19918;-69
2023/01/10 00:22:27;;;;;;;2.03;0.55;;;17.00;75.10;;;;;;7408680;19;19952;-70
2023/01/10 00:24:57;;;;;;;2.13;0.85;;;17.00;75.10;;;;;;7408811;19;19935;-70
2023/01/10 00:27:25;;;;;;;1.75;0.85;;;17.00;75.10;;;;;;7408356;19;19978;-70
2023/01/10 00:29:56;;;;;;;1.33;0.65;;;17.00;75.10;;;;;;7407303;19;19915;-70
2023/01/10 00:32:26;;;;;;;1.33;0.60;;;17.00;75.10;;;;;;7409033;19;19914;-68
2023/01/10 00:34:55;;;;;;;1.33;0.90;;;17.00;75.00;;;;;;7407929;19;19986;-69
2023/01/10 00:37:26;;;;;;;1.83;0.77;;;17.00;75.00;;;;;;7408134;19;19975;-70
2023/01/10 00:39:55;;;;;;;1.85;1.08;;;17.00;75.10;;;;;;7406844;19;19988;-69
2023/01/10 00:45:06;;;;;;;1.35;0.57;;;17.00;75.00;;;;;;7408143;19;19914;-70
2023/01/10 00:47:35;;;;;;;1.50;0.80;;;17.00;75.00;;;;;;7407906;19;19919;-70
2023/01/10 00:50:05;;;;;;;2.45;0.50;;;17.00;75.60;;;;;;7407056;19;19919;-70
2023/01/10 00:52:37;;;;;;;1.67;0.75;;;17.00;75.00;;;;;;7407464;19;19915;-70
2023/01/10 00:55:07;;;;;;;1.05;0.20;;;17.00;75.00;;;;;;7407907;19;19911;-70
2023/01/10 00:57:36;;;;;;;1.55;0.47;;;17.00;75.00;;;;;;7407480;19;19914;-70
2023/01/10 01:00:06;;;;;;;1.50;0.70;;;17.00;74.90;;;;;;7407466;19;19915;-69
2023/01/10 01:02:35;;;;;;;1.58;0.20;;;17.00;75.00;;;;;;7407194;19;19919;-69
2023/01/10 01:05:04;;;;;;;1.40;0.70;;;17.00;74.90;;;;;;7407282;19;19981;-70
2023/01/10 01:07:33;;;;;;;2.58;0.65;;;17.00;75.50;;;;;;7407801;19;19929;-70
2023/01/10 01:12:46;;;;;;;1.95;0.40;;;16.90;74.90;;;;;;7407051;19;19918;-70
2023/01/10 01:15:15;;;;;;;1.55;0.20;;;17.00;75.00;;;;;;7407144;19;19911;-70
2023/01/10 01:17:44;;;;;;;2.53;0.50;;;17.00;74.90;;;;;;7407387;19;19974;-70
2023/01/10 01:20:13;;;;;;;1.58;0.30;;;17.00;75.00;;;;;;7407361;19;19917;-70
2023/01/10 01:22:42;;;;;;;;;;;16.90;74.90;;;;;;7409697;19;19990;-70
2023/01/10 01:25:14;;;;;;;2.53;0.70;;;16.90;74.80;;;;;;7407120;19;19938;-71
2023/01/10 01:27:43;;;;;;;0.98;0.45;;;16.90;74.90;;;;;;7406545;19;19970;-69
2023/01/10 01:30:14;;;;;;;0.88;0.10;;;16.90;74.90;;;;;;7403455;19;19981;-70
2023/01/10 01:32:43;;;;;;;1.58;0.20;;;16.90;74.90;;;;;;7410721;19;19923;-70
2023/01/10 01:35:15;;;;;;;1.25;0.15;;;16.90;74.90;;;;;;7406193;19;19929;-70
2023/01/10 01:37:45;;;;;;;1.15;0.22;;;16.90;74.80;;;;;;7406590;19;19928;-70
2023/01/10 01:40:17;;;;;;;;;;;16.90;74.90;;;;;;7407278;19;20341;-69
2023/01/10 01:42:48;;;;;;;0.90;0.20;;;16.90;74.80;;;;;;7406713;19;19914;-70
2023/01/10 01:45:37;;;;;;;1.90;0.50;;;16.90;74.90;;;;;;7406094;19;20365;-70
2023/01/10 01:48:37;;;;;;;0.80;0.20;;;16.90;74.80;;;;;;7406456;19;20248;-70
2023/01/10 01:51:11;;;;;;;1.45;0.75;;;16.90;74.80;;;;;;7404717;19;19910;-70
2023/01/10 01:53:45;;;;;;;2.03;0.10;;;16.90;74.90;;;;;;7407113;19;19929;-69
2023/01/10 01:56:20;;;;;;;1.65;0.80;;;16.90;74.80;;;;;;7406269;19;19918;-70
2023/01/10 01:58:53;;;;;;;1.92;0.30;;;16.90;74.80;;;;;;7405997;19;20281;-70
2023/01/10 02:01:23;;;;;;;1.00;0.55;;;16.90;74.80;;;;;;7405887;19;19931;-69
2023/01/10 02:03:55;;;;;;;3.10;0.77;;;16.90;74.80;;;;;;7405468;19;20301;-70
2023/01/10 02:06:26;;;;;;;1.20;0.60;;;16.90;74.80;;;;;;7405817;19;19918;-69
2023/01/10 02:09:04;;;;;;;2.42;0.80;;;16.90;74.80;;;;;;7405596;19;19974;-70
2023/01/10 02:11:36;;;;;;;1.70;0.10;;;16.90;74.80;;;;;;7404712;19;19926;-70
2023/01/10 02:14:07;;;;;;;1.85;0.80;;;16.80;74.70;;;;;;7405847;19;19919;-70
2023/01/10 02:16:36;;;;;;;1.05;0.10;;;16.80;74.70;;;;;;7405553;19;20317;-69
2023/01/10 02:19:13;;;;;;;1.55;0.55;;;16.80;74.70;;;;;;7406114;19;19940;-70
2023/01/10 02:22:14;;;;;;;1.55;0.68;;;16.80;74.70;;;;;;7405416;19;19910;-70
2023/01/10 02:25:11;;;;;;;2.25;0.35;;;16.80;74.70;;;;;;7405228;19;19918;-70
2023/01/10 02:27:57;;;;;;;1.80;0.60;;;16.80;74.70;;;;;;7405229;19;19932;-70
2023/01/10 02:30:47;;;;;;;2.17;0.98;;;16.80;74.70;;;;;;7406623;19;20337;-70
2023/01/10 02:33:25;;;;;;;2.00;0.77;;;16.80;74.70;;;;;;7405155;19;19989;-71
2023/01/10 02:36:12;;;;;;;1.02;0.13;;;16.80;74.70;;;;;;7405366;19;19939;-70
2023/01/10 02:38:53;;;;;;;2.70;0.15;;;16.80;74.70;;;;;;7405112;19;19974;-70
2023/01/10 02:41:31;;;;;;;2.58;0.70;;;16.80;74.70;;;;;;7402472;19;19918;-70
2023/01/10 02:44:06;;;;;;;2.13;0.77;;;16.80;74.70;;;;;;7405287;19;19925;-70
2023/01/10 02:46:37;;;;;;;1.75;1.17;;;16.80;74.70;;;;;;7404608;19;19935;-70
2023/01/10 02:49:09;;;;;;;1.60;0.30;;;16.80;74.60;;;;;;7404464;19;20242;-71
2023/01/10 02:51:38;;;;;;;2.63;0.10;;;16.80;74.70;;;;;;7403450;19;19914;-70
2023/01/10 02:54:11;;;;;;;0.68;0.10;;;16.80;74.60;;;;;;7404954;19;19918;-70
2023/01/10 02:57:03;;;;;;;2.20;0.82;;;16.80;74.60;;;;;;7404313;19;19983;-71
2023/01/10 03:00:11;;;;;;;1.52;0.10;;;16.80;74.70;;;;;;7403870;19;20348;-70
2023/01/10 03:02:53;;;;;;;1.75;0.50;;;16.80;74.60;;;;;;7404483;19;19974;-71
2023/01/10 03:05:34;;;;;;;2.20;0.20;;;16.70;74.60;;;;;;7404656;19;19911;-71
2023/01/10 03:08:12;;;;;;;1.92;1.05;;;16.80;74.60;;;;;;7404548;19;19937;-70
2023/01/10 03:10:49;;;;;;;0.80;0.20;;;16.80;74.70;;;;;;7404317;19;19946;-70
2023/01/10 03:13:22;;;;;;;1.63;0.50;;;16.80;74.60;;;;;;7404330;19;20349;-70
2023/01/10 03:15:53;;;;;;;1.85;0.63;;;16.70;74.50;;;;;;7403783;19;19915;-71
2023/01/10 03:18:25;;;;;;;1.10;0.10;;;16.70;74.50;;;;;;7404023;19;19923;-70
2023/01/10 03:20:59;;;;;;;3.05;0.60;;;16.70;74.50;;;;;;7403948;19;19915;-70
2023/01/10 03:23:29;;;;;;;1.00;0.10;;;16.70;74.50;;;;;;7403555;19;19921;-69
2023/01/10 03:26:00;;;;;;;1.75;0.57;;;16.70;74.50;;;;;;7403322;19;20332;-70
2023/01/10 03:28:35;;;;;;;2.90;0.85;;;16.70;74.50;;;;;;7404348;19;19953;-70
2023/01/10 03:31:10;;;;;;;1.92;0.65;;;16.70;74.50;;;;;;7402177;19;19928;-70
2023/01/10 03:33:39;;;;;;;1.15;0.43;;;16.70;74.50;;;;;;7402803;19;19927;-70
2023/01/10 03:36:25;;;;;;;1.42;0.52;;;16.70;74.50;;;;;;7403494;19;19954;-70
2023/01/10 03:38:56;;;;;;;1.50;0.20;;;16.70;74.40;;;;;;7401242;19;19914;-70
2023/01/10 03:41:36;;;;;;;2.20;0.60;;;16.70;74.40;;;;;;7401592;19;19915;-69
2023/01/10 03:47:00;;;;;;;1.50;0.70;;;16.70;74.40;;;;;;7402928;19;19926;-70
2023/01/10 03:49:31;;;;;;;2.10;0.20;;;16.70;74.40;;;;;;7402688;19;19914;-70
2023/01/10 03:52:03;;;;;;;2.15;0.70;;;16.70;74.40;;;;;;7401443;19;19915;-70
2023/01/10 03:54:32;;;;;;;1.02;0.10;;;16.70;74.40;;;;;;7408249;19;19986;-70
2023/01/10 03:57:01;;;;;;;1.30;0.13;;;16.70;74.40;;;;;;7409664;19;20349;-70
2023/01/10 03:59:31;;;;;;;1.73;0.60;;;16.70;74.30;;;;;;7409227;19;19931;-71
2023/01/10 04:02:00;;;;;;;1.95;0.43;;;16.70;74.30;;;;;;7408796;19;19935;-70
2023/01/10 04:04:31;;;;;;;1.60;0.63;;;16.70;74.90;;;;;;7408693;19;19922;-70
2023/01/10 04:07:02;;;;;;;1.42;0.20;;;16.70;74.40;;;;;;7409023;19;19922;-70
2023/01/10 04:09:31;;;;;;;1.88;1.00;;;16.70;74.40;;;;;;7407505;19;19915;-70
2023/01/10 04:12:00;;;;;;;2.15;0.85;;;16.70;74.40;;;;;;7407148;19;19921;-70
2023/01/10 04:14:31;;;;;;;2.13;0.65;;;16.70;74.30;;;;;;7408525;19;19914;-70
2023/01/10 04:17:01;;;;;;;1.98;0.20;;;16.70;74.30;;;;;;7409285;19;19923;-70
2023/01/10 04:19:29;;;;;;;;;;;16.70;74.30;;;;;;7411022;19;19910;-69
2023/01/10 04:21:58;;;;;;;1.58;0.40;;;16.60;74.20;;;;;;7409291;19;19914;-70
2023/01/10 04:24:30;;;;;;;1.88;0.30;;;16.60;74.20;;;;;;7408651;19;19911;-70
2023/01/10 04:26:59;;;;;;;1.83;0.65;;;16.70;74.20;;;;;;7410026;19;19925;-70
2023/01/10 04:29:28;;;;;;;;;;;16.60;74.20;;;;;;7410804;19;20020;-70
2023/01/10 04:31:57;;;;;;;1.63;0.70;;;16.70;74.20;;;;;;7406469;19;19919;-70
2023/01/10 04:34:26;;;;;;;1.65;0.30;;;16.60;74.20;;;;;;7408034;19;20323;-70
2023/01/10 04:36:55;;;;;;;1.13;0.60;;;16.60;74.20;;;;;;7408354;19;19915;-70
2023/01/10 04:39:24;;;;;;;2.10;0.55;;;16.60;74.20;;;;;;7407719;19;19926;-70
2023/01/10 04:41:56;;;;;;;1.00;0.50;;;16.70;74.30;;;;;;7408066;19;20022;-71
2023/01/10 04:44:25;;;;;;;2.75;0.65;;;16.60;74.20;;;;;;7408338;19;19914;-70
2023/01/10 04:46:54;;;;;;;2.80;0.77;;;16.70;74.20;;;;;;7408052;19;19941;-71
2023/01/10 04:49:23;;;;;;;1.10;0.10;;;16.60;74.20;;;;;;7407774;19;19994;-70
2023/01/10 04:51:52;;;;;;;1.60;0.80;;;16.60;74.10;;;;;;7406577;19;19919;-70
2023/01/10 04:54:22;;;;;;;2.00;0.77;;;16.60;74.10;;;;;;7406121;19;19915;-70
2023/01/10 04:56:51;;;;;;;1.50;0.30;;;16.60;74.10;;;;;;7406480;19;19966;-70
2023/01/10 04:59:23;;;;;;;1.33;0.10;;;16.60;74.20;;;;;;7407633;19;19921;-70
2023/01/10 05:01:52;;;;;;;1.67;0.57;;;16.60;74.10;;;;;;7408016;19;19974;-70
2023/01/10 05:04:21;;;;;;;2.95;0.70;;;16.60;74.10;;;;;;7406549;19;19978;-71
2023/01/10 05:06:50;;;;;;;3.55;0.30;;;16.60;74.10;;;;;;7407975;19;19939;-70
2023/01/10 05:09:19;;;;;;;1.42;0.20;;;16.60;74.10;;;;;;7406429;19;19917;-70
2023/01/10 05:11:48;;;;;;;1.98;0.52;;;16.60;74.10;;;;;;7405968;19;19915;-70
2023/01/10 05:14:16;;;;;;;1.90;0.30;;;16.60;74.10;;;;;;7407169;19;20333;-69
2023/01/10 05:16:48;;;;;;;1.45;0.20;;;16.60;74.10;;;;;;7406832;19;20349;-70
2023/01/10 05:19:17;;;;;;;2.13;1.05;;;16.60;74.10;;;;;;7407681;19;20352;-70
2023/01/10 05:21:46;;;;;;;1.73;0.28;;;16.50;74.00;;;;;;7406916;19;20247;-70
2023/01/10 05:24:15;;;;;;;1.40;0.10;;;16.60;74.10;;;;;;7407183;19;19935;-70
2023/01/10 05:26:44;;;;;;;2.67;1.02;;;16.60;74.10;;;;;;7410050;19;19922;-70
2023/01/10 05:29:13;;;;;;;1.55;0.60;;;16.50;74.10;;;;;;7406601;19;19923;-71
2023/01/10 05:31:43;;;;;;;2.03;0.20;;;16.50;74.00;;;;;;7405730;19;19926;-70
2023/01/10 05:34:16;;;;;;;1.88;0.63;;;16.50;74.00;;;;;;7406411;19;19990;-70
2023/01/10 05:36:45;;;;;;;1.77;0.70;;;16.50;74.00;;;;;;7407635;19;19935;-70
2023/01/10 05:39:13;;;;;;;2.10;0.30;;;16.50;74.00;;;;;;7406145;19;19930;-70
2023/01/10 05:41:42;;;;;;;1.70;0.70;;;16.60;74.00;;;;;;7406959;19;20358;-70
2023/01/10 05:44:12;;;;;;;1.77;0.63;;;16.50;74.00;;;;;;7406119;19;19918;-70
2023/01/10 05:46:41;;;;;;;1.98;0.20;;;16.50;73.90;;;;;;7406191;19;19923;-70
2023/01/10 05:49:10;;;;;;;2.03;0.30;;;16.50;73.90;;;;;;7406343;19;20246;-69
2023/01/10 05:51:41;;;;;;;2.20;0.90;;;16.50;73.90;;;;;;7405751;19;19943;-70
2023/01/10 05:54:10;;;;;;;1.20;0.13;;;16.60;73.90;;;;;;7406250;19;19931;-70
2023/01/10 05:56:40;;;;;;;1.85;0.15;;;16.60;73.90;;;;;;7406066;19;20351;-69
2023/01/10 05:59:09;;;;;;;2.08;0.30;;;16.70;73.80;;;;;;7406178;19;20015;-70
2023/01/10 06:01:37;;;;;;;3.08;0.40;;;16.70;73.60;;;;;;7405716;19;19942;-70
2023/01/10 06:04:07;;;;;;;1.48;0.20;;;16.80;73.60;;;;;;7405812;19;19966;-70
2023/01/10 06:06:36;;;;;;;3.33;0.80;;;16.80;73.40;;;;;;7405747;19;19931;-70
2023/01/10 06:09:08;;;;;;;2.90;0.32;;;16.90;73.30;;;;;;7404682;19;19935;-69
2023/01/10 06:11:38;;;;;;;1.27;0.57;;;16.90;73.10;;;;;;7405505;19;19935;-69
2023/01/10 06:14:07;;;;;;;1.77;0.65;;;17.00;73.00;;;;;;7404119;19;20007;-70
2023/01/10 06:16:36;;;;;;;1.42;0.20;;;17.10;72.90;;;;;;7403866;19;20344;-70
2023/01/10 06:19:05;;;;;;;1.27;0.50;;;17.20;72.70;;;;;;7405501;19;20337;-69
2023/01/10 06:21:34;;;;;;;2.60;0.70;;;17.30;72.50;;;;;;7405268;19;19954;-69
2023/01/10 06:24:03;;;;;;;2.20;0.20;;;17.30;72.30;;;;;;7406495;19;19915;-70
2023/01/10 06:26:35;;;;;;;1.63;0.60;;;17.40;72.20;;;;;;7405654;19;19925;-70
2023/01/10 06:29:04;;;;;;;2.63;0.20;;;17.50;72.00;;;;;;7405443;19;20312;-70
2023/01/10 06:31:33;;;;;;;2.22;0.20;;;17.60;72.50;;;;;;7404720;19;19915;-70
2023/01/10 06:34:02;;;;;;;1.52;0.63;;;17.70;71.70;;;;;;7404642;19;19983;-68
2023/01/10 06:36:31;;;;;;;2.00;0.10;;;17.70;71.50;;;;;;7405164;19;19919;-69
2023/01/10 06:39:00;;;;;;;2.25;0.20;;;17.80;71.40;;;;;;7405130;19;19915;-69
2023/01/10 06:41:29;;;;;;;1.83;0.50;;;17.90;71.40;;;;;;7403526;19;19926;-70
2023/01/10 06:44:01;;;;;;;1.75;0.55;;;17.90;71.30;;;;;;7405548;19;19955;-70
2023/01/10 06:46:30;;;;;;;1.83;0.50;;;17.90;71.20;;;;;;7404790;19;19918;-70
2023/01/10 06:48:59;;;;;;;2.75;0.20;;;17.90;71.20;;;;;;7404605;19;19942;-70
2023/01/10 06:51:28;;;;;;;2.00;0.65;;;17.90;71.20;;;;;;7404821;19;19907;-70
2023/01/10 06:53:57;;;;;;;1.17;0.20;;;17.90;71.30;;;;;;7404580;19;19911;-70
2023/01/10 06:56:26;;;;;;;2.05;0.22;;;17.90;71.30;;;;;;7404997;19;20353;-69
2023/01/10 06:58:55;;;;;;;2.00;0.28;;;17.80;71.30;;;;;;7404809;19;19915;-70
2023/01/10 07:01:26;;;;;;;2.83;0.70;;;17.80;71.30;;;;;;7404815;19;19990;-69
2023/01/10 07:03:56;;;;;;;1.80;0.60;;;17.70;71.40;;;;;;7404204;19;19918;-70
2023/01/10 07:06:24;;;;;;;2.47;0.80;;;17.70;71.40;;;;;;7404176;19;19994;-70
2023/01/10 07:08:56;;;;;;;1.63;0.70;;;17.70;71.50;;;;;;7403665;19;19936;-70
2023/01/10 07:11:25;;;;;;;2.78;0.90;;;17.70;71.60;;;;;;7403782;19;19921;-70
2023/01/10 07:13:55;;;;;;;1.80;0.20;;;17.70;71.70;;;;;;7404376;19;19922;-70
2023/01/10 07:16:26;;;;;;;3.28;0.32;;;17.70;71.80;;;;;;7403970;19;20260;-70
2023/01/10 07:18:55;;;;;;;1.67;0.20;;;17.60;71.80;;;;;;7403941;19;19979;-67
2023/01/10 07:21:24;;;;;;;;;;;17.60;71.70;;;;;;7404878;19;19927;-70
2023/01/10 07:23:53;;;;;;;0.95;0.20;;;17.50;71.70;;;;;;7406733;19;19914;-70
2023/01/10 07:26:23;;;;;;;2.78;0.82;;;17.50;71.90;;;;;;7403724;19;19943;-70
2023/01/10 07:28:52;;;;;;;1.15;0.40;;;17.50;71.90;;;;;;7407086;19;19914;-70
2023/01/10 07:31:23;;;;;;;1.75;0.68;;;17.40;71.80;;;;;;7410755;19;19911;-70
2023/01/10 07:33:55;;;;;;;2.10;0.55;;;17.50;72.00;;;;;;7410370;19;19971;-69
2023/01/10 07:36:25;;;;;;;1.65;0.70;;;17.40;72.00;;;;;;7410026;19;19919;-70
2023/01/10 07:38:54;;;;;;;3.25;0.40;;;17.40;72.00;;;;;;7410231;19;19914;-70
2023/01/10 07:41:23;;;;;;;2.40;0.22;;;17.40;72.10;;;;;;7407807;19;19927;-70
2023/01/10 07:43:52;;;;;;;2.13;0.70;;;17.30;72.10;;;;;;7410160;19;19939;-70
2023/01/10 07:46:21;;;;;;;2.13;0.47;;;17.30;72.10;;;;;;7409502;19;19928;-70
2023/01/10 07:48:50;;;;;;;2.03;0.20;;;17.30;72.20;;;;;;7409351;19;19989;-68
2023/01/10 07:51:21;;;;;;;2.10;0.20;;;17.30;72.30;;;;;;7409817;19;19914;-70
2023/01/10 07:53:50;;;;;;;1.35;0.40;;;17.20;72.20;;;;;;7407413;19;19974;-70
2023/01/10 07:56:19;;;;;;;1.60;0.10;;;17.20;72.30;;;;;;7409845;19;19919;-69
2023/01/10 07:58:48;;;;;;;1.40;0.15;;;17.20;72.40;;;;;;7409790;19;19926;-71
2023/01/10 08:01:17;;;;;;;2.58;0.73;;;17.20;72.40;;;;;;7408860;19;20361;-70
2023/01/10 08:03:46;;;;;;;2.47;0.25;;;17.10;72.40;;;;;;7408597;19;20576;-70
2023/01/10 08:06:17;;;;;;;2.75;0.47;;;17.10;72.50;;;;;;7409414;19;19919;-70
2023/01/10 08:08:49;;;;;;;2.10;0.20;;;17.10;72.50;;;;;;7408138;19;19931;-70
2023/01/10 08:11:18;;;;;;;2.20;1.27;;;17.00;72.50;;;;;;7409046;19;19939;-70
2023/01/10 08:13:47;;;;;;;2.65;0.30;;;17.00;72.60;;;;;;7406414;19;20271;-70
2023/01/10 08:16:16;;;;;;;2.03;0.10;;;17.00;72.60;;;;;;7408909;19;19925;-70
2023/01/10 08:18:45;;;;;;;2.35;0.60;;;17.00;72.70;;;;;;7407945;19;19915;-70
2023/01/10 08:21:14;;;;;;;2.30;0.63;;;17.00;72.80;;;;;;7409448;19;19906;-70
2023/01/10 08:23:43;;;;;;;1.92;0.73;;;17.00;72.70;;;;;;7408773;19;19914;-70
2023/01/10 08:26:14;;;;;;;2.40;0.20;;;17.00;72.80;;;;;;7408545;19;19935;-70
2023/01/10 08:28:43;;;;;;;3.22;0.30;;;16.90;72.80;;;;;;7408497;19;20265;-70
2023/01/10 08:31:12;;;;;;;4.20;0.88;;;16.90;72.80;;;;;;7408567;19;19915;-70
2023/01/10 08:33:42;;;;;;;2.72;1.00;;;16.90;72.80;;;;;;7406206;19;19974;-70
2023/01/10 08:36:17;;;;;;;2.05;0.52;;;16.90;72.80;;;;;;7408263;19;19906;-70
2023/01/10 08:38:49;;;;;;;1.60;0.70;;;16.90;72.80;;;;;;7407484;19;19936;-70
2023/01/10 08:41:22;;;;;;;1.77;0.20;;;16.90;72.80;;;;;;7406340;19;19938;-70
2023/01/10 08:43:51;;;;;;;2.38;0.63;;;16.90;72.80;;;;;;7408591;19;19987;-70
2023/01/10 08:46:21;;;;;;;1.52;0.20;;;16.90;72.90;;;;;;7408382;19;19918;-71
2023/01/10 08:48:50;;;;;;;1.67;0.70;;;16.90;72.90;;;;;;7408075;19;19915;-70
2023/01/10 08:51:22;;;;;;;1.55;0.20;;;16.90;72.90;;;;;;7408395;19;20267;-71
2023/01/10 08:53:51;;;;;;;0.60;0.15;;;16.80;72.90;;;;;;7407387;19;20360;-69
2023/01/10 08:56:22;;;;;;;1.92;0.60;;;16.80;72.90;;;;;;7408489;19;19992;-70
2023/01/10 08:58:51;;;;;;;2.95;0.45;;;16.80;72.90;;;;;;7408315;19;19922;-70
2023/01/10 09:01:20;;;;;;;1.27;0.43;;;16.80;72.90;;;;;;7407759;19;19923;-70
2023/01/10 09:03:49;;;;;;;1.60;0.20;;;16.80;72.90;;;;;;7405434;19;19915;-70
2023/01/10 09:06:18;;;;;;;2.47;1.95;;;16.80;72.90;;;;;;7407770;19;19983;-70
2023/01/10 09:08:50;;;;;;;2.33;0.40;;;16.80;73.00;;;;;;7406974;19;20340;-69
2023/01/10 09:11:19;;;;;;;2.03;0.40;;;16.80;73.00;;;;;;7407404;19;20311;-71
2023/01/10 09:13:53;;;;;;;2.95;0.90;;;16.80;73.00;;;;;;7405607;19;19931;-70
2023/01/10 09:16:22;;;;;;;2.60;1.02;;;16.80;73.00;;;;;;7407143;19;19974;-70
2023/01/10 09:18:51;;;;;;;2.15;0.28;;;16.80;73.10;;;;;;7407010;19;19918;-69
2023/01/10 09:21:20;;;;;;;2.63;1.00;;;16.80;73.00;;;;;;7411361;19;19919;-70
2023/01/10 09:23:49;;;;;;;3.67;0.85;;;16.80;73.00;;;;;;7406885;19;19914;-70
2023/01/10 09:26:18;;;;;;;2.13;0.20;;;16.70;73.00;;;;;;7406997;19;19922;-69
2023/01/10 09:28:48;;;;;;;2.05;0.20;;;16.70;73.00;;;;;;7406814;19;19918;-70
2023/01/10 09:31:19;;;;;;;1.98;0.45;;;16.70;73.00;;;;;;7406942;19;20369;-70
2023/01/10 09:33:48;;;;;;;2.95;0.30;;;16.70;73.00;;;;;;7404648;19;19914;-70
2023/01/10 09:36:22;;;;;;;2.50;0.73;;;16.70;73.10;;;;;;7406672;19;19922;-70
2023/01/10 09:38:52;;;;;;;1.92;0.73;;;16.70;73.10;;;;;;7407045;19;20394;-70
2023/01/10 09:41:56;;;;;;;1.85;0.20;;;16.70;73.00;;;;;;7404783;19;19990;-70
2023/01/10 09:44:38;;;;;;;3.28;0.93;;;16.70;73.10;;;;;;7407156;19;20224;-70
2023/01/10 09:47:20;;;;;;;2.10;0.22;;;16.70;73.40;;;;;;7406300;19;19915;-70
2023/01/10 09:49:59;;;;;;;3.28;0.32;;;16.70;73.10;;;;;;7405941;19;19915;-70
2023/01/10 09:52:32;;;;;;;2.00;0.25;;;16.70;73.10;;;;;;7404181;19;19922;-70
2023/01/10 09:55:19;;;;;;;1.73;0.82;;;16.70;73.10;;;;;;7406871;19;19922;-70
2023/01/10 09:57:49;;;;;;;3.47;1.02;;;16.70;73.10;;;;;;7406261;19;19915;-69
2023/01/10 10:00:23;;;;;;;1.95;0.93;;;16.70;73.10;;;;;;7405779;19;19921;-70
2023/01/10 10:02:56;;;;;;;1.95;0.20;;;16.70;73.10;;;;;;7407285;19;19918;-70
2023/01/10 10:05:27;;;;;;;2.00;0.20;;;16.70;73.10;;;;;;7405682;19;19910;-70
2023/01/10 10:07:59;;;;;;;2.20;0.30;;;16.70;73.20;;;;;;7405894;19;19938;-70
2023/01/10 10:10:33;;;;;;;1.98;0.30;;;16.70;73.10;;;;;;7405850;19;19914;-70
2023/01/10 10:13:17;;;;;;;2.30;0.65;;;16.70;73.10;;;;;;7404900;19;19931;-70
2023/01/10 10:15:54;;;;;;;2.63;0.70;;;16.70;73.20;;;;;;7406094;19;19922;-70
2023/01/10 10:18:42;;;;;;;2.90;0.43;;;16.70;73.20;;;;;;7405956;19;19939;-70
2023/01/10 10:21:18;;;;;;;3.03;0.30;;;16.70;73.10;;;;;;7405144;19;20344;-70
2023/01/10 10:24:02;;;;;;;1.88;0.30;;;16.70;73.10;;;;;;7405259;19;19915;-70
2023/01/10 10:26:35;;;;;;;2.33;1.15;;;16.70;73.10;;;;;;7405895;19;19918;-70
2023/01/10 10:29:38;;;;;;;1.83;0.20;;;16.70;73.10;;;;;;7405527;19;20321;-70
2023/01/10 10:32:28;;;;;;;2.15;0.40;;;16.70;73.10;;;;;;7405166;19;20305;-70
2023/01/10 10:35:04;;;;;;;2.72;0.68;;;16.70;73.10;;;;;;7404686;19;19915;-70
2023/01/10 10:37:39;;;;;;;3.50;0.82;;;16.70;73.10;;;;;;7405121;19;19915;-70
2023/01/10 10:40:20;;;;;;;4.05;0.98;;;16.70;73.20;;;;;;7403324;19;19922;-70
2023/01/10 10:42:52;;;;;;;1.42;0.20;;;16.70;73.10;;;;;;7405194;19;20242;-69
2023/01/10 10:45:24;;;;;;;2.08;0.20;;;16.70;73.10;;;;;;7404962;19;19970;-71
2023/01/10 10:48:00;;;;;;;2.97;0.63;;;16.70;73.10;;;;;;7404896;19;19926;-70
2023/01/10 10:50:35;;;;;;;3.33;0.30;;;16.70;73.10;;;;;;7404615;19;19915;-70
2023/01/10 10:53:06;;;;;;;2.80;0.30;;;16.70;73.10;;;;;;7403874;19;19910;-70
2023/01/10 10:55:37;;;;;;;2.17;0.28;;;16.70;73.10;;;;;;7404511;19;19966;-70
2023/01/10 10:58:09;;;;;;;2.45;0.80;;;16.70;73.10;;;;;;7404856;19;19923;-70
2023/01/10 11:00:38;;;;;;;3.50;0.40;;;16.70;73.20;;;;;;7406482;19;20311;-70
2023/01/10 11:03:16;;;;;;;2.53;1.50;;;16.70;73.00;;;;;;7404041;19;19931;-70
2023/01/10 11:05:49;;;;;;;2.80;1.13;;;16.80;73.00;;;;;;7404282;19;19918;-70
2023/01/10 11:08:21;;;;;;;2.47;0.93;;;16.80;72.90;;;;;;7404153;19;19922;-70
2023/01/10 11:10:53;;;;;;;3.67;0.90;;;16.90;72.80;;;;;;7402164;19;19914;-70
2023/01/10 11:13:31;;;;;;;3.10;0.50;;;17.00;72.70;;;;;;7403576;19;20640;-70
2023/01/10 11:16:01;;;;;;;2.28;0.57;;;17.10;72.60;;;;;;7403832;19;19921;-70
2023/01/10 11:18:31;;;;;;;1.40;0.52;;;17.10;72.50;;;;;;7407394;19;19928;-69
2023/01/10 11:21:07;;;;;;;2.00;0.30;;;17.20;72.30;;;;;;7404276;19;19946;-71
2023/01/10 11:23:42;;;;;;;1.75;0.50;;;17.30;72.20;;;;;;7403643;19;20369;-70
2023/01/10 11:26:24;;;;;;;2.15;0.40;;;17.40;72.00;;;;;;7404131;19;19911;-70
2023/01/10 11:28:53;;;;;;;2.45;0.75;;;17.50;71.90;;;;;;7403486;19;20305;-70
2023/01/10 11:31:29;;;;;;;2.53;0.85;;;17.50;71.70;;;;;;7403569;19;19926;-70
2023/01/10 11:33:59;;;;;;;2.95;0.90;;;17.70;71.50;;;;;;7402946;19;19939;-70
2023/01/10 11:37:03;;;;;;;3.30;0.30;;;17.80;71.40;;;;;;7401294;19;20280;-70
2023/01/10 11:39:34;;;;;;;2.38;0.95;;;17.80;71.20;;;;;;7402971;19;20337;-69
2023/01/10 11:42:31;;;;;;;2.08;0.82;;;17.90;71.00;;;;;;7402900;19;19935;-69
2023/01/10 11:45:27;;;;;;;2.13;0.15;;;18.00;70.90;;;;;;7403080;19;20241;-70
2023/01/10 11:47:59;;;;;;;2.33;0.82;;;18.10;70.80;;;;;;7402919;19;19989;-71
2023/01/10 11:50:31;;;;;;;1.88;0.70;;;18.10;70.60;;;;;;7402906;19;19918;-70
2023/01/10 11:53:03;;;;;;;1.70;0.20;;;18.20;71.10;;;;;;7400998;19;19978;-70
2023/01/10 11:55:35;;;;;;;2.88;0.30;;;18.20;70.50;;;;;;7402831;19;19971;-70
2023/01/10 11:58:07;;;;;;;3.03;0.90;;;18.10;71.10;;;;;;7403096;19;19914;-70
2023/01/10 12:00:41;;;;;;;3.03;1.10;;;18.20;70.60;;;;;;7402615;19;19970;-70
2023/01/10 12:03:26;;;;;;;2.38;0.40;;;18.10;70.60;;;;;;7402224;19;19922;-70
2023/01/10 12:05:57;;;;;;;3.13;0.80;;;18.10;70.60;;;;;;7402449;19;19931;-70
2023/01/10 12:08:32;;;;;;;2.03;0.30;;;18.10;70.70;;;;;;7402316;19;20290;-70
2023/01/10 12:11:04;;;;;;;3.75;0.82;;;18.00;70.80;;;;;;7402545;19;19919;-69
2023/01/10 12:13:46;;;;;;;3.08;0.95;;;18.00;70.80;;;;;;7401120;19;19939;-70
2023/01/10 12:16:24;;;;;;;1.50;0.17;;;18.00;70.90;;;;;;7410977;19;20279;-70
2023/01/10 12:18:55;;;;;;;2.35;1.10;;;17.90;70.90;;;;;;7408935;19;19931;-70
2023/01/10 12:21:36;;;;;;;3.00;1.30;;;17.90;71.00;;;;;;7408770;19;19918;-70
2023/01/10 12:24:14;;;;;;;1.95;0.85;;;17.90;71.10;;;;;;7408630;19;19921;-69
2023/01/10 12:26:44;;;;;;;2.35;0.60;;;17.80;71.10;;;;;;7408653;19;19918;-69
2023/01/10 12:29:17;;;;;;;2.70;0.95;;;17.80;71.20;;;;;;7408465;19;19914;-70
2023/01/10 12:31:47;;;;;;;3.05;0.30;;;17.80;71.30;;;;;;7408719;19;19949;-70
2023/01/10 12:34:20;;;;;;;2.95;0.43;;;17.70;71.20;;;;;;7406807;19;19918;-70
2023/01/10 12:36:59;;;;;;;2.90;0.88;;;17.70;71.30;;;;;;7408965;19;19923;-70
2023/01/10 12:39:35;;;;;;;2.80;0.38;;;17.70;71.40;;;;;;7406188;19;19919;-69
2023/01/10 12:45:05;;;;;;;2.92;1.08;;;17.70;71.50;;;;;;7403796;19;19952;-70
2023/01/10 12:47:41;;;;;;;4.55;0.93;;;17.60;71.40;;;;;;7398318;19;19922;-70
2023/01/10 12:50:17;;;;;;;2.63;0.88;;;17.60;71.40;;;;;;7405091;19;20406;-69
2023/01/10 12:52:51;;;;;;;2.80;0.73;;;17.60;71.50;;;;;;7409536;19;19970;-69
2023/01/10 12:55:26;;;;;;;2.92;0.50;;;17.60;71.60;;;;;;7408008;19;19932;-69
2023/01/10 12:57:58;;;;;;;4.43;1.05;;;17.60;71.60;;;;;;7407034;19;19946;-70
2023/01/10 13:00:32;;;;;;;2.63;0.75;;;17.60;71.60;;;;;;7408971;19;19934;-70
2023/01/10 13:03:03;;;;;;;3.72;1.08;;;17.60;71.60;;;;;;7406864;19;19915;-73
2023/01/10 13:05:32;;;;;;;4.20;0.95;;;17.70;71.60;;;;;;7408044;19;19910;-69
2023/01/10 13:08:06;;;;;;;4.20;0.90;;;17.70;71.60;;;;;;7404463;19;19918;-69
2023/01/10 13:10:43;;;;;;;2.85;0.80;;;17.80;71.50;;;;;;7405513;19;19933;-69
2023/01/10 13:13:21;;;;;;;4.38;0.90;;;17.80;71.40;;;;;;7404137;19;19940;-69
2023/01/10 13:15:55;;;;;;;2.92;0.75;;;17.90;71.40;;;;;;7407564;19;19918;-69
2023/01/10 13:18:28;;;;;;;6.22;1.23;;;17.90;71.30;;;;;;7405522;19;19928;-69
2023/01/10 13:30:00;;;;;;;3.90;0.77;;;18.20;71.10;;;;;;7342388;19;20808;31
2023/01/10 13:32:31;;;;;;;3.70;0.70;;;18.30;71.00;;;;;;7395840;19;19925;-69
2023/01/10 13:35:13;;;;;;;2.83;0.77;;;18.40;70.90;;;;;;7409340;19;19926;-72
2023/01/10 13:37:45;;;;;;;2.38;0.80;;;18.50;70.80;;;;;;7409060;19;19921;-72
2023/01/10 13:40:26;;;;;;;3.40;0.95;;;18.50;70.60;;;;;;7409205;19;20344;-67